createdAt,value
2022-10-23T00:02:55.871Z,8.19
2022-10-23T00:08:01.358Z,8.33
2022-10-23T00:13:05.299Z,8.07
2022-10-23T00:18:10.689Z,8.13
2022-10-23T00:23:14.626Z,8.09
2022-10-23T00:28:18.710Z,8.22
2022-10-23T00:33:24.114Z,8.13
2022-10-23T00:38:28.286Z,8.11
2022-10-23T00:43:33.219Z,8.10
2022-10-23T00:48:38.765Z,8.05
2022-10-23T00:53:44.685Z,7.78
2022-10-23T00:58:48.658Z,7.75
2022-10-23T01:03:54.394Z,7.78
2022-10-23T01:09:04.449Z,7.72
2022-10-23T01:14:18.759Z,7.84
2022-10-23T01:19:38.539Z,7.83
2022-10-23T01:24:50.774Z,7.93
2022-10-23T01:30:07.162Z,8.04
2022-10-23T01:35:21.038Z,8.10
2022-10-23T01:40:36.811Z,8.08
2022-10-23T01:45:44.825Z,8.04
2022-10-23T01:50:56.743Z,8.10
2022-10-23T01:56:04.186Z,8.25
2022-10-23T02:01:12.743Z,8.33
2022-10-23T02:06:25.364Z,8.36
2022-10-23T02:11:29.665Z,8.20
2022-10-23T02:16:41.180Z,8.09
2022-10-23T02:21:54.035Z,8.19
2022-10-23T02:27:02.410Z,8.15
2022-10-23T02:32:12.577Z,8.30
2022-10-23T02:37:18.023Z,8.48
2022-10-23T02:42:27.817Z,8.45
2022-10-23T02:47:46.978Z,8.54
2022-10-23T02:52:59.822Z,8.71
2022-10-23T02:58:10.571Z,8.63
2022-10-23T03:03:25.774Z,8.64
2022-10-23T03:08:31.232Z,8.35
2022-10-23T03:13:35.440Z,8.22
2022-10-23T03:18:40.805Z,7.88
2022-10-23T03:23:44.929Z,7.91
2022-10-23T03:28:54.766Z,7.68
2022-10-23T03:34:04.098Z,7.50
2022-10-23T03:39:10.346Z,7.50
2022-10-23T03:44:14.484Z,7.47
2022-10-23T03:49:23.374Z,7.43
2022-10-23T03:54:29.970Z,7.39
2022-10-23T03:59:34.089Z,7.38
2022-10-23T04:04:39.538Z,7.50
2022-10-23T04:09:43.453Z,7.43
2022-10-23T04:14:52.585Z,7.39
2022-10-23T04:19:58.066Z,7.43
2022-10-23T04:25:01.978Z,7.41
2022-10-23T04:30:09.036Z,7.40
2022-10-23T04:35:14.351Z,7.53
2022-10-23T04:40:18.471Z,7.48
2022-10-23T04:45:22.789Z,7.48
2022-10-23T04:50:28.269Z,7.40
2022-10-23T04:56:01.804Z,7.43
2022-10-23T05:01:24.995Z,7.44
2022-10-23T05:06:30.548Z,7.37
2022-10-23T05:11:57.223Z,7.45
2022-10-23T05:17:04.179Z,7.55
2022-10-23T05:22:11.693Z,7.78
2022-10-23T05:27:28.455Z,7.99
2022-10-23T05:32:34.688Z,8.22
2022-10-23T05:37:44.844Z,8.63
2022-10-23T05:42:55.209Z,9.32
2022-10-23T05:48:22.240Z,9.83
2022-10-23T05:53:56.100Z,10.43
2022-10-23T05:59:32.230Z,11.00
2022-10-23T06:04:55.824Z,11.47
2022-10-23T06:10:07.993Z,11.94
2022-10-23T06:15:17.546Z,12.29
2022-10-23T06:20:47.635Z,12.86
2022-10-23T06:26:02.200Z,13.46
2022-10-23T06:31:21.802Z,13.89
2022-10-23T06:36:28.870Z,14.09
2022-10-23T06:41:45.463Z,14.49
2022-10-23T06:47:10.679Z,14.77
2022-10-23T06:52:47.833Z,15.31
2022-10-23T06:57:56.444Z,15.61
2022-10-23T07:03:00.532Z,16.03
2022-10-23T07:08:06.877Z,16.28
2022-10-23T07:13:18.507Z,16.61
2022-10-23T07:18:35.872Z,17.00
2022-10-23T07:23:59.400Z,16.67
2022-10-23T07:29:05.387Z,18.01
2022-10-23T07:34:11.401Z,18.58
2022-10-23T07:39:16.870Z,18.52
2022-10-23T07:44:28.517Z,19.08
2022-10-23T07:49:33.065Z,19.80
2022-10-23T07:54:42.555Z,19.86
2022-10-23T08:00:00.320Z,20.54
2022-10-23T08:05:04.489Z,20.30
2022-10-23T08:10:15.322Z,20.54
2022-10-23T08:15:22.720Z,20.99
2022-10-23T08:20:40.113Z,21.82
2022-10-23T08:25:44.541Z,20.81
2022-10-23T08:30:51.191Z,21.01
2022-10-23T08:35:55.671Z,22.02
2022-10-23T08:41:07.977Z,21.54
2022-10-23T08:46:32.983Z,20.14
2022-10-23T08:51:59.149Z,19.57
2022-10-23T08:57:11.707Z,21.86
2022-10-23T09:02:22.737Z,21.81
2022-10-23T09:07:40.957Z,21.62
2022-10-23T09:12:45.179Z,22.68
2022-10-23T09:17:58.795Z,22.18
2022-10-23T09:23:05.390Z,23.04
2022-10-23T09:28:20.266Z,24.05
2022-10-23T09:33:27.255Z,22.75
2022-10-23T09:38:33.478Z,22.34
2022-10-23T09:43:37.450Z,23.46
2022-10-23T09:48:45.086Z,24.83
2022-10-23T09:53:52.713Z,25.05
2022-10-23T09:58:59.870Z,24.86
2022-10-23T10:04:05.384Z,25.07
2022-10-23T10:09:13.783Z,24.33
2022-10-23T10:14:36.904Z,23.29
2022-10-23T10:19:57.474Z,23.77
2022-10-23T10:25:10.017Z,24.30
2022-10-23T10:30:19.695Z,24.41
2022-10-23T10:35:41.892Z,24.17
2022-10-23T10:41:01.945Z,23.24
2022-10-23T10:46:13.553Z,24.79
2022-10-23T10:51:26.009Z,25.03
2022-10-23T10:56:32.874Z,23.82
2022-10-23T11:01:39.344Z,24.07
2022-10-23T11:06:50.246Z,24.83
2022-10-23T11:11:54.404Z,24.93
2022-10-23T11:17:03.517Z,23.64
2022-10-23T11:22:13.875Z,24.71
2022-10-23T11:27:44.558Z,24.23
2022-10-23T11:33:22.227Z,25.38
2022-10-23T11:38:30.982Z,24.48
2022-10-23T11:43:48.699Z,24.78
2022-10-23T11:48:53.894Z,23.39
2022-10-23T11:54:24.486Z,24.87
2022-10-23T11:59:32.839Z,23.68
2022-10-23T12:04:42.383Z,23.92
2022-10-23T12:09:55.157Z,23.99
2022-10-23T12:15:20.030Z,24.05
2022-10-23T12:20:49.432Z,24.32
2022-10-23T12:26:13.226Z,23.74
2022-10-23T12:31:31.802Z,23.52
2022-10-23T12:37:02.546Z,23.00
2022-10-23T12:42:17.038Z,22.80
2022-10-23T12:47:21.525Z,23.00
2022-10-23T12:52:25.729Z,23.15
2022-10-23T12:57:31.371Z,23.27
2022-10-23T13:02:35.464Z,23.27
2022-10-23T13:07:46.429Z,22.75
2022-10-23T13:12:57.780Z,21.85
2022-10-23T13:18:03.668Z,22.13
2022-10-23T13:23:13.479Z,22.27
2022-10-23T13:28:25.330Z,21.51
2022-10-23T13:33:34.121Z,21.45
2022-10-23T13:38:39.723Z,21.71
2022-10-23T13:43:49.754Z,21.52
2022-10-23T13:48:54.026Z,21.52
2022-10-23T13:53:58.953Z,20.89
2022-10-23T13:59:04.333Z,20.85
2022-10-23T14:04:09.531Z,20.41
2022-10-23T14:09:15.906Z,20.30
2022-10-23T14:14:21.274Z,19.87
2022-10-23T14:19:25.330Z,19.60
2022-10-23T14:24:29.290Z,19.43
2022-10-23T14:29:34.694Z,19.29
2022-10-23T14:34:42.180Z,19.03
2022-10-23T14:39:49.755Z,18.65
2022-10-23T14:44:55.630Z,18.39
2022-10-23T14:49:59.570Z,18.03
2022-10-23T14:55:03.466Z,17.52
2022-10-23T15:00:10.124Z,17.27
2022-10-23T15:05:14.066Z,16.83
2022-10-23T15:15:28.212Z,16.75
2022-10-23T15:20:32.197Z,16.55
2022-10-23T15:25:36.106Z,16.31
2022-10-23T15:30:43.480Z,16.06
2022-10-23T15:35:47.344Z,15.24
2022-10-23T15:40:51.365Z,15.05
2022-10-23T15:45:56.775Z,14.44
2022-10-23T15:51:00.737Z,13.80
2022-10-23T15:56:05.191Z,13.84
2022-10-23T16:01:10.612Z,13.88
2022-10-23T16:06:16.794Z,13.74
2022-10-23T16:11:22.390Z,13.62
2022-10-23T16:16:29.130Z,13.45
2022-10-23T16:21:36.135Z,13.11
2022-10-23T16:26:40.263Z,13.21
2022-10-23T16:31:46.769Z,13.10
2022-10-23T16:36:51.026Z,12.79
2022-10-23T16:41:54.962Z,12.48
2022-10-23T16:47:03.528Z,12.42
2022-10-23T16:52:07.437Z,12.35
2022-10-23T16:57:11.411Z,12.20
2022-10-23T17:02:16.839Z,12.01
2022-10-23T17:12:26.383Z,11.87
2022-10-23T17:17:31.859Z,11.89
2022-10-23T17:22:36.651Z,11.89
2022-10-23T17:27:40.976Z,11.94
2022-10-23T17:32:47.460Z,12.14
2022-10-23T17:37:51.611Z,12.41
2022-10-23T17:42:55.498Z,12.11
2022-10-23T17:48:00.770Z,11.88
2022-10-23T17:53:04.826Z,11.67
2022-10-23T17:58:09.083Z,11.65
2022-10-23T18:03:17.741Z,11.68
2022-10-23T18:08:23.739Z,11.58
2022-10-23T18:13:27.923Z,11.81
2022-10-23T18:18:33.773Z,12.04
2022-10-23T18:23:38.283Z,12.18
2022-10-23T18:28:42.221Z,11.88
2022-10-23T18:33:47.818Z,12.06
2022-10-23T18:38:51.988Z,11.69
2022-10-23T18:43:56.063Z,11.53
2022-10-23T18:49:01.379Z,11.27
2022-10-23T18:54:08.085Z,11.26
2022-10-23T18:59:18.736Z,11.21
2022-10-23T19:04:24.012Z,10.98
2022-10-23T19:09:27.926Z,10.82
2022-10-23T19:14:31.796Z,10.76
2022-10-23T19:19:41.594Z,10.88
2022-10-23T19:24:50.382Z,10.67
2022-10-23T19:29:56.358Z,10.60
2022-10-23T19:35:01.667Z,10.90
2022-10-23T19:40:06.858Z,11.19
2022-10-23T19:45:12.965Z,11.22
2022-10-23T19:50:18.768Z,11.02
2022-10-23T19:55:22.704Z,10.72
2022-10-23T20:00:28.171Z,10.40
2022-10-23T20:05:33.752Z,10.20
2022-10-23T20:10:42.458Z,10.07
2022-10-23T20:15:46.345Z,10.02
2022-10-23T20:20:51.744Z,9.77
2022-10-23T20:25:55.733Z,9.65
2022-10-23T20:31:00.841Z,9.65
2022-10-23T20:36:08.263Z,9.49
2022-10-23T20:41:12.241Z,9.70
2022-10-23T20:46:16.357Z,9.25
2022-10-23T20:51:23.657Z,9.25
2022-10-23T20:56:31.837Z,8.93
2022-10-23T21:01:36.357Z,8.80
2022-10-23T21:07:04.426Z,8.58
2022-10-23T21:12:07.547Z,8.56
2022-10-23T21:17:16.665Z,8.73
2022-10-23T21:22:22.011Z,8.86
2022-10-23T21:27:26.104Z,8.82
2022-10-23T21:32:30.026Z,8.68
2022-10-23T21:37:35.410Z,8.63
2022-10-23T21:42:39.327Z,8.56
2022-10-23T21:47:43.597Z,8.53
2022-10-23T21:52:53.120Z,8.51
2022-10-23T21:57:57.301Z,8.59
2022-10-23T22:03:01.184Z,8.72
2022-10-23T22:08:06.959Z,8.72
2022-10-23T22:13:10.905Z,8.61
2022-10-23T22:18:14.786Z,8.76
2022-10-23T22:23:20.190Z,9.00
2022-10-23T22:28:24.363Z,8.84
2022-10-23T22:33:28.458Z,8.77
2022-10-23T22:38:33.893Z,8.72
2022-10-23T22:43:38.387Z,8.48
2022-10-23T22:48:42.746Z,8.47
2022-10-23T22:53:48.685Z,8.65
2022-10-23T22:58:53.238Z,8.65
2022-10-23T23:04:04.440Z,8.67
2022-10-23T23:09:22.758Z,8.56
2022-10-23T23:14:26.795Z,8.49
2022-10-23T23:19:30.770Z,8.25
2022-10-23T23:24:36.392Z,8.35
2022-10-23T23:29:40.322Z,8.28
2022-10-23T23:34:44.306Z,8.45
2022-10-23T23:39:49.613Z,8.29
2022-10-23T23:45:02.557Z,8.41
2022-10-23T23:50:14.677Z,8.41
2022-10-23T23:55:20.274Z,8.39
